Schedule Details

Flight Number: CPX712
Departure: Tokyo-Narita International Airport (RJAA) at N/A
Arrival: Incheon International Airport (RKSI) at N/A
Route: SOUKA Y16 SAPRA Y685 SEL SEL1T


Current Weather Information
RJAA 180600Z 25009KT 220V300 9999 FEW030 13/M05 Q1023 BECMG TL0700 20007KT
RKSI 180600Z 30008KT CAVOK 02/M08 Q1025 NOSIG

Route Map